Weather at Basin Harbor Airport

Public forecast

Using degrees Fahrenheit for public forecast. Weather courtesy of forecast.io.

Closest aviation weather report (METAR) to Basin Harbor Airport

Closest report is Burlington International Airport, 19.0 nm (35.2 km) NNE.

2024/07/12 23:54 (retrieved 45 minutes ago)

KBTV 122354Z 09004KT 10SM FEW048 BKN080 27/21 A3010 RMK AO2 SLP192 T02720211 10283 20267 56004

Closest aviation forecast (TAF) to Basin Harbor Airport

Forecast is more than 6 hours old.

Closest forecast is Wheeler Sack Army Air Field, 102.1 nm (189.0 km) W.

2024/07/12 17:24 (retrieved 7 hours ago)

TAF TAF KGTB 121700Z 1217/1323 VRB06KT 9999 SCT020 OVC065 QNH3012INS BECMG 1222/1223 VRB06KT 9999 SCT200 QNH3010INS TX26/1220Z TN18/1310Z